• Join FlightAware (Why Join?)
  • Login
  • US Flag 
01:16PM EDT


 

Airport Tracker/Info


-or-


 

Live Flight TrackerFlight Track Log ✈ N588AC ✈ 01-May-2013 ✈ KPHF - KBCB

Flight Track Log - Related Links

Times and Time Zones

All times are in EDT time to prevent confusion due to time zone crossing. See the N588AC flight status page for this flight to view local times or setup timezone preferences in your user account.

Time Position Orientation Groundspeed Altitude Reporting Facility
EDT Latitude Longitude Course Direction KTS MPH feet Rate Location/Type
07:17PM 37.1353 -76.4803 50° Northeast 144 166 1,400  Level Washington Center
07:18PM 37.1458 -76.4647 50° Northeast 141 162 2,100 1,620 Climbing Washington Center
07:19PM 37.1917 -76.4836 342° North 282 325 3,600 2,460 Climbing Washington Center
07:20PM 37.1681 -76.5744 252° West 253 291 7,300 3,000 Climbing Washington Center
07:20PM 37.1594 -76.6003 247° West 247 284 8,200 2,460 Climbing Washington Center
07:21PM 37.1442 -76.6808 257° West 258 297 10,800 2,520 Climbing Washington Center
07:22PM 37.1225 -76.7614 251° West 263 303 13,300 2,160 Climbing Washington Center
07:23PM 37.1028 -76.8522 255° West 263 303 15,200 1,380 Climbing Washington Center
07:24PM 37.0767 -76.9481 251° West 271 312 16,100 420 Climbing Washington Center
07:25PM 37.0503 -77.0622 254° West 312 359 16,100 -60 Level Washington Center
07:26PM 37.0467 -77.1844 268° West 334 384 16,000 -60 Descending Washington Center
07:27PM 37.0514 -77.3094 273° West 350 403 16,000  Level Washington Center
07:28PM 37.0536 -77.4292 271° West 356 410 16,100  Climbing Washington Center
07:29PM 37.0539 -77.5489 270° West 356 410 16,100 -60 Level Washington Center
07:30PM 37.0539 -77.6686 270° West 356 410 16,000 -60 Descending Washington Center
07:31PM 37.0561 -77.7911 271° West 356 410 16,000  Level Washington Center
07:32PM 37.0556 -77.9158 270° West 356 410 16,000  Level Washington Center
07:33PM 37.0575 -78.0358 271° West 350 403 16,000  Level Washington Center
07:34PM 37.0569 -78.1553 270° West 345 397 16,000  Level Washington Center
07:35PM 37.0606 -78.2778 272° West 345 397 16,000  Level Washington Center
07:36PM 37.0600 -78.3975 270° West 345 397 16,000  Level Washington Center
07:37PM 37.0592 -78.5172 270° West 345 397 16,000  Level Washington Center
07:38PM 37.0581 -78.6500 269° West 345 397 16,000  Level Washington Center
07:39PM 37.0589 -78.7722 271° West 345 397 16,000  Level Washington Center
07:40PM 37.0578 -78.8919 269° West 350 403 16,000  Level Washington Center
07:41PM 37.0586 -79.0092 271° West 345 397 16,000  Level Washington Center
07:42PM 37.0556 -79.1158 268° West 345 397 16,000 -60 Level Washington Center
07:43PM 37.0561 -79.2356 270° West 345 397 15,900 -420 Descending Washington Center
07:44PM 37.0547 -79.3472 269° West 345 397 15,200 -1,080 Descending Washington Center
07:45PM 37.0536 -79.4539 269° West 327 376 13,800 -1,680 Descending Washington Center
07:46PM 37.0519 -79.5658 269° West 327 376 11,900 -2,100 Descending Washington Center
07:47PM 37.0519 -79.6881 270° West 327 376 9,700 -1,800 Descending Washington Center
07:48PM 37.0503 -79.7947 269° West 327 376 8,300 -900 Descending Washington Center
07:49PM 37.0489 -79.8989 269° West 314 361 8,000 -720 Descending Washington Center
07:50PM 37.0494 -79.9978 270° West 301 346 6,900 -1,140 Descending Washington Center
07:51PM 37.0625 -80.0922 280° West 291 335 5,700 -900 Descending Washington Center
07:52PM 37.0994 -80.1647 303° West 267 307 5,200 -300 Descending Washington Center
07:53PM 37.1339 -80.2450 298° West 267 307 5,200  Level Washington Center